Time;durP1;ratioP1;P1;durP2;ratioP2;P2;SDS_P1;SDS_P2;PMS_P1;PMS_P2;Temp;Humidity;BMP_temperature;BMP_pressure;BME280_temperature;BME280_humidity;BME280_pressure;Samples;Min_cycle;Max_cycle;Signal;HPM_P1;HPM_P2
2023/09/09 00:00:48;;;;;;;10.00;8.32;;;;;;;;;;4989727;28;20496;-71
2023/09/09 00:03:14;;;;;;;9.38;8.43;;;;;;;;;;4983253;28;20035;-71
2023/09/09 00:05:40;;;;;;;11.10;8.48;;;;;;;;;;4985082;28;20105;-72
2023/09/09 00:08:06;;;;;;;13.73;9.15;;;;;;;;;;4977800;28;20101;-71
2023/09/09 00:10:38;;;;;;;11.18;8.93;;;;;;;;;;4981855;28;20332;-71
2023/09/09 00:13:04;;;;;;;13.50;9.52;;;;;;;;;;4985069;28;20026;-71
2023/09/09 00:15:34;;;;;;;10.05;8.40;;;;;;;;;;4980278;28;20579;-70
2023/09/09 00:18:00;;;;;;;10.40;8.55;;;;;;;;;;4983595;28;20447;-70
2023/09/09 00:20:36;;;;;;;10.30;8.43;;;;;;;;;;4984324;28;20062;-71
2023/09/09 00:23:08;;;;;;;8.90;8.10;;;;;;;;;;4989347;28;20176;-70
2023/09/09 00:25:34;;;;;;;9.30;7.85;;;;;;;;;;4982202;28;20034;-70
2023/09/09 00:28:00;;;;;;;9.35;8.32;;;;;;;;;;4977494;28;20033;-71
2023/09/09 00:30:26;;;;;;;9.35;8.18;;;;;;;;;;4982750;28;20038;-71
2023/09/09 00:32:52;;;;;;;11.40;7.88;;;;;;;;;;4985824;28;20047;-71
2023/09/09 00:35:18;;;;;;;12.25;8.32;;;;;;;;;;4985096;28;20570;-70
2023/09/09 00:37:44;;;;;;;10.32;8.02;;;;;;;;;;4983798;28;20026;-71
2023/09/09 00:40:11;;;;;;;11.32;7.53;;;;;;;;;;4982858;28;20041;-71
2023/09/09 00:42:37;;;;;;;10.57;7.88;;;;;;;;;;4977284;28;20022;-71
2023/09/09 00:45:04;;;;;;;11.07;8.77;;;;;;;;;;4983488;28;20374;-71
2023/09/09 00:47:30;;;;;;;11.27;8.73;;;;;;;;;;4992780;28;20067;-71
2023/09/09 00:49:56;;;;;;;10.13;7.50;;;;;;;;;;4987179;28;20031;-71
2023/09/09 00:52:22;;;;;;;9.85;7.25;;;;;;;;;;4980822;28;20038;-71
2023/09/09 00:54:48;;;;;;;8.18;7.32;;;;;;;;;;4991056;28;20030;-72
2023/09/09 00:57:16;;;;;;;8.60;7.72;;;;;;;;;;4993304;28;20034;-71
2023/09/09 00:59:43;;;;;;;9.38;8.43;;;;;;;;;;5000162;28;20038;-72
2023/09/09 01:02:09;;;;;;;8.40;7.57;;;;;;;;;;4997231;28;20431;-71
2023/09/09 01:04:35;;;;;;;9.27;7.90;;;;;;;;;;4986028;28;20034;-71
2023/09/09 01:07:02;;;;;;;10.48;7.60;;;;;;;;;;4984963;28;20038;-70
2023/09/09 01:09:30;;;;;;;9.05;8.20;;;;;;;;;;4986952;28;20038;-71
2023/09/09 01:11:56;;;;;;;8.93;7.50;;;;;;;;;;4986972;28;20058;-71
2023/09/09 01:14:22;;;;;;;10.48;8.20;;;;;;;;;;4984404;28;20030;-71
2023/09/09 01:16:51;;;;;;;12.85;8.85;;;;;;;;;;4987250;28;20488;-71
2023/09/09 01:19:19;;;;;;;12.88;9.27;;;;;;;;;;4995346;28;20495;-71
2023/09/09 01:21:46;;;;;;;10.32;8.88;;;;;;;;;;4990330;28;20061;-71
2023/09/09 01:24:16;;;;;;;10.88;8.80;;;;;;;;;;4978612;28;20405;-71
2023/09/09 01:26:45;;;;;;;11.80;9.77;;;;;;;;;;4986115;28;20022;-71
2023/09/09 01:29:11;;;;;;;12.45;10.32;;;;;;;;;;4983568;28;20109;-71
2023/09/09 01:31:38;;;;;;;12.32;10.02;;;;;;;;;;4980200;28;20074;-71
2023/09/09 01:34:04;;;;;;;10.88;9.65;;;;;;;;;;4985044;28;20065;-71
2023/09/09 01:36:30;;;;;;;12.15;8.63;;;;;;;;;;4987902;28;20484;-71
2023/09/09 01:38:56;;;;;;;10.85;9.23;;;;;;;;;;4979108;28;20379;-71
2023/09/09 01:41:22;;;;;;;11.23;8.93;;;;;;;;;;4986603;28;20042;-71
2023/09/09 01:43:48;;;;;;;11.77;8.93;;;;;;;;;;4985703;28;20066;-71
2023/09/09 01:46:14;;;;;;;10.68;9.10;;;;;;;;;;4985017;28;20377;-71
2023/09/09 01:48:40;;;;;;;9.38;8.45;;;;;;;;;;4981211;28;20037;-71
2023/09/09 01:51:06;;;;;;;10.02;9.02;;;;;;;;;;4977896;28;20046;-71
2023/09/09 01:53:33;;;;;;;14.40;10.35;;;;;;;;;;4984161;28;20508;-71
2023/09/09 01:55:59;;;;;;;12.68;9.27;;;;;;;;;;4966749;28;20084;-71
2023/09/09 01:58:25;;;;;;;13.50;10.23;;;;;;;;;;4980596;28;20376;-71
2023/09/09 02:00:51;;;;;;;12.32;10.05;;;;;;;;;;4985334;28;20068;-71
2023/09/09 02:03:17;;;;;;;10.73;9.60;;;;;;;;;;4986449;28;20042;-71
2023/09/09 02:05:43;;;;;;;11.57;10.10;;;;;;;;;;4985613;28;20057;-71
2023/09/09 02:08:09;;;;;;;11.38;10.13;;;;;;;;;;4980341;28;20058;-70
2023/09/09 02:10:35;;;;;;;12.02;10.32;;;;;;;;;;4979571;28;20070;-71
2023/09/09 02:13:01;;;;;;;12.52;10.55;;;;;;;;;;4981315;28;20484;-71
2023/09/09 02:15:27;;;;;;;11.60;10.50;;;;;;;;;;4999922;28;20072;-70
2023/09/09 02:17:53;;;;;;;11.95;10.30;;;;;;;;;;4980473;28;20045;-71
2023/09/09 02:20:19;;;;;;;13.02;9.90;;;;;;;;;;4979602;28;20100;-71
2023/09/09 02:22:45;;;;;;;12.05;9.65;;;;;;;;;;4986073;28;20442;-71
2023/09/09 02:25:11;;;;;;;13.95;10.98;;;;;;;;;;4985726;28;20076;-71
2023/09/09 02:27:37;;;;;;;11.68;10.57;;;;;;;;;;4984322;28;20031;-71
2023/09/09 02:30:04;;;;;;;13.38;11.88;;;;;;;;;;5007396;28;20498;-71
2023/09/09 02:32:30;;;;;;;12.77;9.80;;;;;;;;;;4976974;28;20212;-71
2023/09/09 02:34:57;;;;;;;12.88;11.30;;;;;;;;;;4986096;28;20528;-71
2023/09/09 02:37:23;;;;;;;11.55;10.38;;;;;;;;;;4984807;28;20635;-71
2023/09/09 02:39:50;;;;;;;12.63;11.30;;;;;;;;;;4982727;28;20038;-71
2023/09/09 02:42:20;;;;;;;12.77;10.77;;;;;;;;;;4979915;28;20466;-71
2023/09/09 02:44:46;;;;;;;12.00;10.80;;;;;;;;;;4983765;28;21107;-71
2023/09/09 02:47:13;;;;;;;15.15;10.40;;;;;;;;;;4992897;28;20030;-71
2023/09/09 02:49:39;;;;;;;11.05;9.95;;;;;;;;;;4998703;28;20034;-71
2023/09/09 02:52:09;;;;;;;11.85;10.68;;;;;;;;;;4980144;28;20051;-71
2023/09/09 02:54:35;;;;;;;11.07;9.82;;;;;;;;;;4982752;28;20042;-71
2023/09/09 02:57:03;;;;;;;11.35;10.18;;;;;;;;;;4980033;28;20031;-71
2023/09/09 02:59:30;;;;;;;14.13;11.93;;;;;;;;;;4983107;28;20085;-72
2023/09/09 03:01:56;;;;;;;14.55;12.20;;;;;;;;;;4975306;28;20026;-71
2023/09/09 03:04:22;;;;;;;15.23;11.60;;;;;;;;;;4972283;28;20035;-70
2023/09/09 03:06:48;;;;;;;12.13;10.93;;;;;;;;;;4978788;28;20022;-71
2023/09/09 03:09:15;;;;;;;14.57;10.95;;;;;;;;;;4980988;28;20684;-71
2023/09/09 03:11:41;;;;;;;11.68;10.40;;;;;;;;;;4978507;28;20041;-71
2023/09/09 03:14:08;;;;;;;11.55;10.40;;;;;;;;;;4981804;28;20052;-71
2023/09/09 03:16:34;;;;;;;13.57;11.23;;;;;;;;;;4978205;28;20101;-71
2023/09/09 03:19:00;;;;;;;16.45;10.90;;;;;;;;;;4983498;28;20122;-72
2023/09/09 03:21:26;;;;;;;12.73;11.40;;;;;;;;;;4984171;28;20129;-71
2023/09/09 03:23:52;;;;;;;14.35;12.32;;;;;;;;;;4987200;28;20034;-71
2023/09/09 03:26:19;;;;;;;13.68;11.07;;;;;;;;;;4986356;28;20089;-72
2023/09/09 03:28:48;;;;;;;13.38;11.52;;;;;;;;;;4984646;28;20511;-71
2023/09/09 03:31:14;;;;;;;13.48;11.85;;;;;;;;;;4986615;28;20050;-72
2023/09/09 03:33:40;;;;;;;13.35;11.55;;;;;;;;;;4982459;28;20062;-72
2023/09/09 03:36:07;;;;;;;13.32;12.00;;;;;;;;;;4981631;28;20118;-72
2023/09/09 03:38:33;;;;;;;13.18;11.10;;;;;;;;;;4987414;28;20464;-72
2023/09/09 03:40:59;;;;;;;12.65;11.32;;;;;;;;;;4979632;28;20049;-71
2023/09/09 03:43:25;;;;;;;12.93;11.30;;;;;;;;;;4984105;28;20038;-71
2023/09/09 03:45:57;;;;;;;12.68;11.38;;;;;;;;;;5003529;28;20544;-72
2023/09/09 03:48:24;;;;;;;11.18;10.05;;;;;;;;;;4984962;28;20026;-71
2023/09/09 03:50:50;;;;;;;12.18;11.02;;;;;;;;;;4990541;28;20407;-71
2023/09/09 03:53:16;;;;;;;12.60;11.30;;;;;;;;;;4982860;28;20492;-71
2023/09/09 03:55:42;;;;;;;12.25;10.15;;;;;;;;;;4985077;28;20476;-71
2023/09/09 03:58:08;;;;;;;12.43;10.48;;;;;;;;;;4989463;28;20052;-71
2023/09/09 04:00:34;;;;;;;11.02;9.88;;;;;;;;;;4984832;28;20035;-71
2023/09/09 04:03:00;;;;;;;12.40;10.45;;;;;;;;;;4987978;28;20030;-71
2023/09/09 04:05:27;;;;;;;12.75;10.95;;;;;;;;;;4986879;28;20061;-71
2023/09/09 04:07:53;;;;;;;15.15;10.63;;;;;;;;;;4985369;28;20085;-71
2023/09/09 04:10:19;;;;;;;12.57;11.27;;;;;;;;;;5000663;28;20026;-71
2023/09/09 04:12:45;;;;;;;14.70;12.88;;;;;;;;;;4980966;28;20039;-71
2023/09/09 04:15:11;;;;;;;14.48;12.98;;;;;;;;;;4987149;28;20041;-71
2023/09/09 04:17:38;;;;;;;15.00;13.25;;;;;;;;;;4987441;28;20027;-71
2023/09/09 04:20:05;;;;;;;17.98;14.25;;;;;;;;;;4989547;28;20064;-71
2023/09/09 04:22:31;;;;;;;17.23;14.23;;;;;;;;;;4985382;28;20077;-71
2023/09/09 04:24:57;;;;;;;15.90;14.25;;;;;;;;;;4982857;28;20085;-71
2023/09/09 04:27:23;;;;;;;14.70;13.23;;;;;;;;;;4981137;28;20035;-71
2023/09/09 04:29:49;;;;;;;16.05;14.10;;;;;;;;;;4998411;28;20042;-71
2023/09/09 04:32:15;;;;;;;15.95;13.48;;;;;;;;;;4998379;28;20045;-71
2023/09/09 04:34:41;;;;;;;15.85;14.10;;;;;;;;;;4991774;28;20053;-71
2023/09/09 04:37:08;;;;;;;15.98;14.30;;;;;;;;;;4987312;28;20381;-71
2023/09/09 04:39:34;;;;;;;17.58;14.02;;;;;;;;;;4986242;28;20127;-71
2023/09/09 04:42:00;;;;;;;17.00;13.38;;;;;;;;;;4985493;28;20089;-71
2023/09/09 04:44:26;;;;;;;14.98;13.27;;;;;;;;;;4978677;28;20046;-72
2023/09/09 04:46:52;;;;;;;15.25;13.85;;;;;;;;;;4998287;28;20034;-71
2023/09/09 04:49:18;;;;;;;16.38;14.02;;;;;;;;;;4982845;28;20038;-71
2023/09/09 04:51:44;;;;;;;19.65;13.25;;;;;;;;;;4979492;28;20070;-71
2023/09/09 04:54:10;;;;;;;14.57;13.07;;;;;;;;;;5002843;28;20038;-72
2023/09/09 04:56:36;;;;;;;15.40;12.95;;;;;;;;;;4978016;28;20614;-71
2023/09/09 04:59:02;;;;;;;18.30;14.70;;;;;;;;;;4982125;28;20461;-76
2023/09/09 05:01:28;;;;;;;15.07;13.57;;;;;;;;;;4977109;28;20034;-75
2023/09/09 05:03:54;;;;;;;16.05;14.32;;;;;;;;;;4986610;28;20465;-74
2023/09/09 05:06:20;;;;;;;18.10;14.32;;;;;;;;;;4980666;28;20550;-76
2023/09/09 05:08:46;;;;;;;16.60;13.52;;;;;;;;;;4983627;28;20153;-76
2023/09/09 05:11:12;;;;;;;15.73;14.13;;;;;;;;;;4980662;28;20034;-76
2023/09/09 05:13:38;;;;;;;15.65;14.05;;;;;;;;;;4987119;28;20045;-75
2023/09/09 05:16:04;;;;;;;16.58;14.88;;;;;;;;;;4988974;28;20038;-75
2023/09/09 05:18:30;;;;;;;15.68;14.07;;;;;;;;;;4987232;28;20026;-74
2023/09/09 05:20:56;;;;;;;18.85;14.38;;;;;;;;;;4988673;28;20054;-76
2023/09/09 05:23:22;;;;;;;17.02;14.98;;;;;;;;;;4987275;28;20492;-75
2023/09/09 05:25:48;;;;;;;17.35;15.02;;;;;;;;;;4983110;28;20038;-77
2023/09/09 05:28:14;;;;;;;15.07;13.57;;;;;;;;;;4985490;28;20038;-80
2023/09/09 05:30:41;;;;;;;17.52;14.57;;;;;;;;;;4982161;28;20126;-78
2023/09/09 05:33:07;;;;;;;14.38;12.95;;;;;;;;;;4974696;28;20038;-79
2023/09/09 05:35:33;;;;;;;15.27;13.38;;;;;;;;;;4989135;28;20026;-79
2023/09/09 05:37:59;;;;;;;17.05;13.57;;;;;;;;;;4986557;28;20053;-78
2023/09/09 05:40:25;;;;;;;19.40;14.52;;;;;;;;;;4984618;28;20373;-75
2023/09/09 05:42:51;;;;;;;16.58;13.73;;;;;;;;;;4983428;28;20038;-75
2023/09/09 05:45:17;;;;;;;14.75;13.25;;;;;;;;;;4981768;28;20038;-75
2023/09/09 05:47:44;;;;;;;14.90;13.43;;;;;;;;;;4981257;28;20039;-76
2023/09/09 05:50:12;;;;;;;15.75;13.98;;;;;;;;;;4986416;28;20039;-76
2023/09/09 05:52:38;;;;;;;16.10;14.35;;;;;;;;;;4983730;28;20496;-76
2023/09/09 05:55:04;;;;;;;13.25;12.05;;;;;;;;;;4979690;28;20034;-78
2023/09/09 05:57:34;;;;;;;16.40;14.07;;;;;;;;;;4998380;28;20369;-78
2023/09/09 06:00:00;;;;;;;16.70;14.93;;;;;;;;;;4977170;28;20027;-78
2023/09/09 06:02:26;;;;;;;17.48;15.48;;;;;;;;;;4973155;28;20130;-75
2023/09/09 06:04:52;;;;;;;16.65;15.02;;;;;;;;;;4978379;28;20118;-76
2023/09/09 06:07:19;;;;;;;18.08;15.07;;;;;;;;;;4986874;28;20034;-76
2023/09/09 06:09:45;;;;;;;18.10;16.25;;;;;;;;;;4984498;28;20073;-76
2023/09/09 06:12:11;;;;;;;17.30;15.43;;;;;;;;;;4985382;28;20432;-76
2023/09/09 06:14:37;;;;;;;18.98;16.02;;;;;;;;;;4984683;28;20492;-76
2023/09/09 06:17:03;;;;;;;21.85;19.55;;;;;;;;;;4984455;28;20038;-76
2023/09/09 06:19:29;;;;;;;21.90;17.33;;;;;;;;;;4984452;28;20034;-75
2023/09/09 06:21:55;;;;;;;21.25;17.58;;;;;;;;;;4982677;28;20133;-79
2023/09/09 06:24:21;;;;;;;21.02;17.40;;;;;;;;;;4986911;28;20068;-76
2023/09/09 06:26:47;;;;;;;23.80;21.15;;;;;;;;;;4978179;28;20081;-74
2023/09/09 06:29:13;;;;;;;26.20;20.50;;;;;;;;;;4988689;28;20031;-77
2023/09/09 06:31:39;;;;;;;31.33;21.52;;;;;;;;;;4987232;28;20108;-76
2023/09/09 06:34:05;;;;;;;22.58;20.30;;;;;;;;;;4987302;28;20361;-77
2023/09/09 06:36:31;;;;;;;23.13;20.75;;;;;;;;;;4987368;28;20086;-75
2023/09/09 06:38:57;;;;;;;22.30;20.00;;;;;;;;;;4985322;28;20567;-76
2023/09/09 06:41:23;;;;;;;24.83;22.33;;;;;;;;;;4986199;28;20121;-76
2023/09/09 06:43:49;;;;;;;27.77;24.25;;;;;;;;;;4983405;28;20058;-76
2023/09/09 06:46:15;;;;;;;31.45;26.80;;;;;;;;;;4985090;28;20038;-75
2023/09/09 06:48:42;;;;;;;31.08;26.75;;;;;;;;;;4986139;28;20038;-76
2023/09/09 06:51:09;;;;;;;31.40;26.80;;;;;;;;;;4983189;28;20131;-76
2023/09/09 06:53:35;;;;;;;31.55;28.40;;;;;;;;;;4978052;28;20022;-75
2023/09/09 06:56:01;;;;;;;36.45;29.65;;;;;;;;;;4990362;28;20039;-75
2023/09/09 06:58:27;;;;;;;30.77;27.40;;;;;;;;;;4976143;28;20034;-75
2023/09/09 07:00:53;;;;;;;30.00;26.35;;;;;;;;;;4982457;28;20124;-76
2023/09/09 07:03:20;;;;;;;30.88;27.33;;;;;;;;;;4987942;28;20060;-76
2023/09/09 07:05:46;;;;;;;30.58;27.10;;;;;;;;;;4966525;28;20137;-76
2023/09/09 07:08:12;;;;;;;32.80;29.27;;;;;;;;;;4985786;28;20517;-76
2023/09/09 07:10:38;;;;;;;30.40;27.10;;;;;;;;;;4987897;28;20022;-75
2023/09/09 07:13:04;;;;;;;31.63;28.20;;;;;;;;;;4987314;28;20110;-76
2023/09/09 07:15:30;;;;;;;32.17;28.77;;;;;;;;;;4985218;28;20065;-75
2023/09/09 07:17:56;;;;;;;30.55;27.05;;;;;;;;;;4974687;28;20065;-75
2023/09/09 07:20:22;;;;;;;38.25;32.95;;;;;;;;;;4988662;28;20430;-75
2023/09/09 07:22:48;;;;;;;41.03;31.15;;;;;;;;;;4986101;28;20053;-76
2023/09/09 07:25:14;;;;;;;34.22;30.60;;;;;;;;;;4979075;28;20380;-75
2023/09/09 07:27:40;;;;;;;37.38;31.30;;;;;;;;;;4986754;28;20030;-76
2023/09/09 07:30:07;;;;;;;37.03;31.10;;;;;;;;;;4994911;28;20034;-76
2023/09/09 07:32:33;;;;;;;37.08;32.90;;;;;;;;;;4986752;28;20042;-76
2023/09/09 07:35:02;;;;;;;34.92;31.15;;;;;;;;;;4986175;28;20396;-76
2023/09/09 07:37:29;;;;;;;42.60;33.03;;;;;;;;;;4987346;28;20073;-77
2023/09/09 07:39:56;;;;;;;44.35;36.67;;;;;;;;;;4985752;28;20023;-76
2023/09/09 07:42:22;;;;;;;43.65;34.80;;;;;;;;;;4987056;28;20030;-76
2023/09/09 07:44:48;;;;;;;46.72;37.63;;;;;;;;;;4985878;28;20526;-73
2023/09/09 07:47:14;;;;;;;49.28;37.72;;;;;;;;;;4976934;28;20446;-76
2023/09/09 07:49:40;;;;;;;44.85;36.38;;;;;;;;;;5001167;28;20033;-77
2023/09/09 07:52:06;;;;;;;41.90;36.20;;;;;;;;;;4982935;28;20034;-76
2023/09/09 07:54:32;;;;;;;41.75;32.38;;;;;;;;;;4986817;28;20507;-77
2023/09/09 07:56:59;;;;;;;35.85;32.05;;;;;;;;;;4984659;28;20472;-82
2023/09/09 07:59:26;;;;;;;36.40;31.23;;;;;;;;;;4993196;28;20023;-83
2023/09/09 08:01:52;;;;;;;33.15;29.67;;;;;;;;;;4983419;28;20483;-81
2023/09/09 08:04:18;;;;;;;31.08;26.48;;;;;;;;;;4982479;28;20057;-80
2023/09/09 08:06:46;;;;;;;32.08;27.55;;;;;;;;;;4995458;28;20097;-80
2023/09/09 08:09:12;;;;;;;31.40;28.13;;;;;;;;;;4986331;28;20027;-81
2023/09/09 08:11:38;;;;;;;29.70;25.13;;;;;;;;;;4988283;28;20050;-82
2023/09/09 08:14:04;;;;;;;29.65;24.02;;;;;;;;;;4984409;28;20512;-83
2023/09/09 08:16:30;;;;;;;33.60;24.85;;;;;;;;;;4990564;28;20126;-81
2023/09/09 08:18:57;;;;;;;28.30;25.20;;;;;;;;;;4985721;28;20454;-78
2023/09/09 08:21:23;;;;;;;30.80;26.27;;;;;;;;;;4986907;28;20081;-78
2023/09/09 08:23:49;;;;;;;29.30;25.30;;;;;;;;;;4985861;28;20019;-78
2023/09/09 08:26:15;;;;;;;29.58;25.27;;;;;;;;;;4984227;28;20030;-78
2023/09/09 08:28:41;;;;;;;26.58;23.48;;;;;;;;;;4989264;28;20548;-83
2023/09/09 08:31:07;;;;;;;28.10;23.52;;;;;;;;;;4979147;28;20042;-82
2023/09/09 08:33:33;;;;;;;27.38;24.33;;;;;;;;;;4979903;28;20038;-83
2023/09/09 08:35:59;;;;;;;27.33;24.42;;;;;;;;;;4985248;28;20052;-82
2023/09/09 08:38:25;;;;;;;28.17;25.17;;;;;;;;;;4977967;28;20046;-81
2023/09/09 08:41:21;;;;;;;33.35;25.60;;;;;;;;;;5000009;28;20031;-83
2023/09/09 08:44:05;;;;;;;27.25;24.35;;;;;;;;;;4987086;28;20019;-85
2023/09/09 08:46:31;;;;;;;27.58;24.25;;;;;;;;;;4979206;28;20527;-84
2023/09/09 08:48:59;;;;;;;30.27;25.45;;;;;;;;;;4986904;28;20480;-84
2023/09/09 08:51:28;;;;;;;24.77;22.17;;;;;;;;;;4987660;28;20066;-82
2023/09/09 08:53:56;;;;;;;27.02;24.08;;;;;;;;;;4987974;28;20048;-83
2023/09/09 08:56:22;;;;;;;25.25;22.23;;;;;;;;;;4984276;28;20030;-86
2023/09/09 08:58:48;;;;;;;26.55;21.05;;;;;;;;;;4985187;28;20027;-84
2023/09/09 09:01:16;;;;;;;21.25;19.05;;;;;;;;;;4982025;28;20034;-80
2023/09/09 09:03:43;;;;;;;23.85;20.40;;;;;;;;;;4986033;28;20109;-80
2023/09/09 09:06:09;;;;;;;22.83;19.85;;;;;;;;;;4980767;28;20712;-81
2023/09/09 09:08:35;;;;;;;20.90;18.70;;;;;;;;;;4990479;28;20022;-81
2023/09/09 09:11:03;;;;;;;24.70;19.52;;;;;;;;;;4981208;28;20126;-83
2023/09/09 09:13:33;;;;;;;20.60;17.77;;;;;;;;;;4978685;28;20037;-82
2023/09/09 09:16:00;;;;;;;21.20;18.60;;;;;;;;;;4983111;28;20026;-80
2023/09/09 09:18:26;;;;;;;32.67;21.33;;;;;;;;;;4988526;28;20046;-85
2023/09/09 09:20:53;;;;;;;17.20;15.35;;;;;;;;;;4986472;28;20654;-79
2023/09/09 09:23:19;;;;;;;19.10;17.10;;;;;;;;;;4977707;28;20059;-78
2023/09/09 09:25:47;;;;;;;23.98;18.02;;;;;;;;;;4987208;28;20066;-82
2023/09/09 09:28:14;;;;;;;21.27;17.35;;;;;;;;;;4979852;28;20515;-77
2023/09/09 09:30:40;;;;;;;19.63;15.98;;;;;;;;;;4983307;28;20034;-77
2023/09/09 09:33:06;;;;;;;21.05;15.30;;;;;;;;;;4982123;28;20042;-78
2023/09/09 09:35:33;;;;;;;18.45;16.50;;;;;;;;;;4980811;28;20384;-77
2023/09/09 09:38:00;;;;;;;19.92;16.65;;;;;;;;;;4985199;28;20480;-78
2023/09/09 09:40:26;;;;;;;16.20;14.57;;;;;;;;;;4983216;28;20030;-81
2023/09/09 09:42:53;;;;;;;14.70;13.27;;;;;;;;;;4977049;28;20512;-76
2023/09/09 09:45:23;;;;;;;16.50;13.20;;;;;;;;;;4983722;28;20039;-79
2023/09/09 09:47:50;;;;;;;14.85;12.45;;;;;;;;;;4987105;28;20054;-76
2023/09/09 09:50:30;;;;;;;13.07;11.68;;;;;;;;;;4977490;28;20074;-79
2023/09/09 09:53:06;;;;;;;17.48;14.02;;;;;;;;;;4988228;28;20491;-88
2023/09/09 09:55:33;;;;;;;15.40;13.48;;;;;;;;;;4990265;28;20092;-91
2023/09/09 09:58:00;;;;;;;16.35;12.48;;;;;;;;;;4972219;28;20197;-87
2023/09/09 10:00:27;;;;;;;12.02;10.05;;;;;;;;;;4976888;28;20112;-86
2023/09/09 10:02:54;;;;;;;15.82;13.80;;;;;;;;;;4978460;28;20042;-86
2023/09/09 10:05:22;;;;;;;17.15;13.00;;;;;;;;;;4976391;28;20033;-80
2023/09/09 10:07:51;;;;;;;15.48;11.38;;;;;;;;;;4984320;28;20050;-79
2023/09/09 10:10:19;;;;;;;15.00;9.05;;;;;;;;;;4985913;28;20026;-79
2023/09/09 10:12:45;;;;;;;14.88;13.35;;;;;;;;;;4977324;28;20038;-79
2023/09/09 10:15:12;;;;;;;14.23;11.32;;;;;;;;;;4980292;28;20030;-80
2023/09/09 10:17:40;;;;;;;12.75;11.45;;;;;;;;;;5001998;28;20491;-78
2023/09/09 10:20:06;;;;;;;16.13;14.43;;;;;;;;;;4977098;28;20037;-77
2023/09/09 10:22:33;;;;;;;15.35;13.75;;;;;;;;;;4980943;28;20500;-80
2023/09/09 10:25:00;;;;;;;14.38;12.82;;;;;;;;;;4999320;28;20049;-79
2023/09/09 10:27:27;;;;;;;14.38;10.68;;;;;;;;;;4982370;28;20037;-80
2023/09/09 10:29:54;;;;;;;14.48;11.23;;;;;;;;;;4981558;28;20469;-80
2023/09/09 10:32:21;;;;;;;12.80;10.55;;;;;;;;;;4983056;28;20034;-80
2023/09/09 10:34:47;;;;;;;15.40;10.88;;;;;;;;;;4989890;28;20440;-81
2023/09/09 10:37:14;;;;;;;13.45;10.68;;;;;;;;;;4982592;28;20465;-81
2023/09/09 10:39:40;;;;;;;10.73;9.05;;;;;;;;;;4981933;28;20021;-78
2023/09/09 10:42:06;;;;;;;9.95;8.98;;;;;;;;;;4984310;28;20108;-78
2023/09/09 10:44:32;;;;;;;10.40;9.30;;;;;;;;;;4982289;28;20057;-78
2023/09/09 10:46:59;;;;;;;11.57;8.82;;;;;;;;;;4985578;28;20038;-79
2023/09/09 10:49:32;;;;;;;14.73;13.23;;;;;;;;;;4990606;28;20065;-76
2023/09/09 10:51:58;;;;;;;11.93;10.45;;;;;;;;;;4993129;28;20039;-76
2023/09/09 10:54:24;;;;;;;12.90;10.20;;;;;;;;;;4981274;28;20085;-77
2023/09/09 10:56:52;;;;;;;16.10;11.38;;;;;;;;;;4980799;28;20313;-77
2023/09/09 10:59:19;;;;;;;10.98;9.43;;;;;;;;;;4980770;28;20133;-76
2023/09/09 11:01:45;;;;;;;17.20;11.68;;;;;;;;;;4979736;28;20101;-78
2023/09/09 11:04:19;;;;;;;11.27;9.98;;;;;;;;;;4986588;28;20488;-76
2023/09/09 11:07:10;;;;;;;13.93;10.88;;;34.80;99.90;;;;;;4987140;28;20435;-77
2023/09/09 11:09:37;;;;;;;20.73;11.13;;;;;;;;;;4980895;28;20054;-79
2023/09/09 11:12:16;;;;;;;12.43;11.02;;;;;;;;;;4984192;28;20039;-79
2023/09/09 11:14:45;;;;;;;11.52;10.30;;;;;;;;;;4987134;28;20755;-78
2023/09/09 11:17:11;;;;;;;9.77;8.80;;;;;;;;;;4978782;28;20153;-78
2023/09/09 11:19:38;;;;;;;15.13;9.50;;;;;;;;;;4984873;28;20484;-79
2023/09/09 11:22:07;;;;;;;13.38;9.30;;;;;;;;;;4984240;28;20054;-79
2023/09/09 11:24:34;;;;;;;11.25;9.05;;;;;;;;;;4985537;28;20158;-79
2023/09/09 11:27:01;;;;;;;9.73;7.88;;;;;;;;;;4982759;28;20227;-79
2023/09/09 11:29:28;;;;;;;10.75;8.57;;;;;;;;;;4988181;28;21386;-78
2023/09/09 11:31:54;;;;;;;16.67;9.20;;;;;;;;;;4981533;28;20046;-81
2023/09/09 11:34:31;;;;;;;12.80;8.80;;;;;;;;;;4980615;28;20516;-83
2023/09/09 11:36:57;;;;;;;14.30;9.38;;;;;;;;;;4985024;28;20042;-88
2023/09/09 11:39:23;;;;;;;15.43;8.93;;;;;;;;;;4977259;28;20493;-88
2023/09/09 11:41:49;;;;;;;9.98;7.85;;;;;;;;;;4983847;28;20042;-81
2023/09/09 11:44:15;;;;;;;11.75;9.75;;;;;;;;;;4987920;28;20499;-81
2023/09/09 11:46:43;;;;;;;9.77;8.77;;;;;;;;;;4980375;28;20037;-81
2023/09/09 11:49:09;;;;;;;13.05;10.73;;;;;;;;;;4985172;28;20049;-76
2023/09/09 11:51:35;;;;;;;13.77;10.75;;;;;;;;;;4982851;28;20045;-76
2023/09/09 11:54:02;;;;;;;11.90;9.90;;;;;;;;;;4989843;28;20411;-76
2023/09/09 11:56:33;;;;;;;11.63;9.50;;;;;;;;;;4990187;28;20042;-76
2023/09/09 11:58:59;;;;;;;12.30;10.40;;;;;;;;;;4987175;28;20121;-77
2023/09/09 12:01:25;;;;;;;12.10;8.88;;;;;;;;;;4986355;28;20038;-76
2023/09/09 12:03:51;;;;;;;10.15;8.88;;;;;;;;;;4985962;28;20460;-81
2023/09/09 12:06:21;;;;;;;10.52;8.75;;;;;;;;;;4987477;28;20023;-79
2023/09/09 12:08:47;;;;;;;18.27;11.18;;;;;;;;;;4985240;28;20035;-79
2023/09/09 12:11:14;;;;;;;17.70;11.48;;;;;;;;;;4987521;28;20104;-83
2023/09/09 12:13:40;;;;;;;15.27;12.05;;;;;;;;;;4983254;28;20038;-83
2023/09/09 12:16:08;;;;;;;11.88;9.02;;;;;;;;;;4988463;28;20042;-78
2023/09/09 12:18:34;;;;;;;9.93;8.55;;;;;;;;;;4984422;28;20174;-80
2023/09/09 12:21:02;;;;;;;9.60;7.50;;;;;;;;;;4986421;28;20089;-80
2023/09/09 12:23:29;;;;;;;8.43;7.25;;;;;;;;;;4982803;28;20038;-85
2023/09/09 12:25:55;;;;;;;6.57;5.88;;;;;;;;;;4984266;28;20038;-84
2023/09/09 12:28:21;;;;;;;11.25;6.03;;;;;;;;;;4984158;28;20388;-78
2023/09/09 12:30:47;;;;;;;9.23;7.28;;;;;;;;;;4983117;28;20046;-75
2023/09/09 12:33:14;;;;;;;9.20;6.43;;;;;;;;;;4981919;28;20041;-75
2023/09/09 12:35:43;;;;;;;8.10;6.00;;;;;;;;;;4985999;28;20126;-75
2023/09/09 12:38:10;;;;;;;6.03;5.22;;;;;;;;;;4984487;28;20379;-75
2023/09/09 12:40:45;;;;;;;6.88;6.20;;;;;;;;;;4986072;28;20285;-75
2023/09/09 12:43:12;;;;;;;10.10;6.53;;;;;;;;;;4977113;28;20041;-75
2023/09/09 12:46:04;;;;;;;9.50;6.10;;;;;;;;;;4983968;28;20077;-75
2023/09/09 12:48:32;;;;;;;9.80;6.28;;;;;;;;;;4972032;28;20112;-75
2023/09/09 12:50:58;;;;;;;8.40;5.75;;;;;;;;;;4984885;28;20045;-76
2023/09/09 12:53:24;;;;;;;9.05;6.68;;;;;;;;;;4984412;28;20053;-76
2023/09/09 12:55:50;;;;;;;12.23;5.50;;;;;;;;;;4989989;28;20066;-76
2023/09/09 12:58:16;;;;;;;9.95;6.05;;;;;;;;;;4983905;28;20080;-75
2023/09/09 13:00:42;;;;;;;15.02;7.30;;;;;;;;;;4982478;28;20045;-85
2023/09/09 13:03:13;;;;;;;7.90;6.03;;;;;;;;;;4988720;28;20062;-85
2023/09/09 13:05:39;;;;;;;8.95;5.80;;;;;;;;;;4988528;28;20088;-84
2023/09/09 13:08:05;;;;;;;11.55;6.68;;;;;;;;;;4988214;28;20026;-86
2023/09/09 13:10:31;;;;;;;10.25;5.47;;;;;;;;;;4986437;28;20154;-84
2023/09/09 13:12:57;;;;;;;7.82;5.03;;;;;;;;;;4988394;28;20045;-84
2023/09/09 13:15:24;;;;;;;10.30;4.90;;;;;;;;;;4981286;28;20114;-85
2023/09/09 13:17:50;;;;;;;7.47;4.65;;;;;;;;;;4986863;28;20057;-84
2023/09/09 13:20:16;;;;;;;5.55;4.50;;;;;;;;;;4987242;28;20030;-83
2023/09/09 13:22:42;;;;;;;7.90;4.22;;;;;;;;;;4982909;28;20065;-84
2023/09/09 13:25:08;;;;;;;4.43;3.95;;;;;;;;;;4984706;28;20050;-84
2023/09/09 13:27:37;;;;;;;5.00;4.25;;;;;;;;;;4984960;28;20030;-84
2023/09/09 13:30:03;;;;;;;7.43;4.30;;;;;;;;;;4987790;28;20475;-85
2023/09/09 13:32:29;;;;;;;12.40;4.28;;;;;;;;;;4980085;28;20065;-84
2023/09/09 13:34:55;;;;;;;6.93;3.97;;;;;;;;;;4985486;28;20473;-83
2023/09/09 13:37:21;;;;;;;5.32;3.75;;;;;;;;;;4988257;28;20049;-83
2023/09/09 13:39:47;;;;;;;8.73;3.70;;;;;;;;;;4985058;28;20069;-83
2023/09/09 13:42:13;;;;;;;3.90;3.50;;;;;;;;;;4983879;28;20077;-83
2023/09/09 13:44:39;;;;;;;4.78;3.97;;;;;;;;;;4982156;28;20066;-75
2023/09/09 13:47:05;;;;;;;5.85;3.45;;;;;;;;;;4985843;28;20547;-75
2023/09/09 13:49:32;;;;;;;8.20;3.28;;;;;;;;;;4984836;28;20019;-74
2023/09/09 13:51:58;;;;;;;6.90;3.50;;;;;;;;;;4987439;28;20038;-74
2023/09/09 13:54:24;;;;;;;6.00;3.00;;;;;;;;;;4981916;28;20085;-75
2023/09/09 13:56:53;;;;;;;8.52;3.95;;;;;;;;;;4982036;28;20394;-75
2023/09/09 13:59:19;;;;;;;8.73;4.10;;;;;;;;;;4986341;28;20030;-75
2023/09/09 14:01:45;;;;;;;4.65;3.90;;;;;;;;;;4978097;28;20472;-75
2023/09/09 14:04:11;;;;;;;5.07;4.00;;;;;;;;;;4985236;28;20041;-76
2023/09/09 14:06:37;;;;;;;7.57;3.78;;;;;;;;;;4985325;28;20034;-74
2023/09/09 14:09:03;;;;;;;4.47;3.47;;;;;;;;;;4986849;28;20033;-75
2023/09/09 14:11:29;;;;;;;5.63;3.78;;;;;;;;;;4986758;28;20084;-75
2023/09/09 14:13:55;;;;;;;6.22;3.53;;;;;;;;;;4986615;28;20035;-75
2023/09/09 14:16:21;;;;;;;8.38;3.67;;;;;;;;;;4974520;28;20469;-75
2023/09/09 14:18:47;;;;;;;10.50;3.90;;;;;;;;;;4989193;28;20041;-75
2023/09/09 14:21:15;;;;;;;8.32;3.70;;;;;;;;;;4986147;28;20045;-75